createdAt,value
2022-08-26T00:01:54.695Z,13.80
2022-08-26T00:04:23.902Z,16.42
2022-08-26T00:06:51.733Z,12.23
2022-08-26T00:09:18.735Z,16.23
2022-08-26T00:11:46.233Z,12.43
2022-08-26T00:14:14.765Z,13.23
2022-08-26T00:16:47.658Z,15.30
2022-08-26T00:19:16.314Z,13.40
2022-08-26T00:21:43.924Z,14.25
2022-08-26T00:24:10.835Z,13.75
2022-08-26T00:26:37.751Z,16.00
2022-08-26T00:29:05.153Z,13.85
2022-08-26T00:31:32.142Z,15.25
2022-08-26T00:33:59.615Z,11.80
2022-08-26T00:36:29.832Z,12.63
2022-08-26T00:38:58.806Z,13.02
2022-08-26T00:41:26.251Z,16.10
2022-08-26T00:43:54.009Z,15.70
2022-08-26T00:46:29.349Z,14.93
2022-08-26T00:49:11.927Z,15.90
2022-08-26T00:51:44.829Z,15.65
2022-08-26T00:54:13.285Z,12.93
2022-08-26T00:56:55.573Z,13.20
2022-08-26T00:59:23.890Z,11.73
2022-08-26T01:01:51.842Z,16.15
2022-08-26T01:04:22.672Z,14.73
2022-08-26T01:06:52.998Z,15.07
2022-08-26T01:09:21.435Z,14.25
2022-08-26T01:11:51.203Z,13.52
2022-08-26T01:14:20.872Z,13.35
2022-08-26T01:16:48.775Z,14.32
2022-08-26T01:19:51.517Z,15.80
2022-08-26T01:22:53.442Z,14.07
2022-08-26T01:25:21.878Z,14.88
2022-08-26T01:27:50.596Z,14.75
2022-08-26T01:30:18.049Z,13.68
2022-08-26T01:32:45.924Z,14.75
2022-08-26T01:35:13.108Z,15.85
2022-08-26T01:37:41.193Z,13.27
2022-08-26T01:40:16.938Z,16.73
2022-08-26T01:42:44.717Z,22.20
2022-08-26T01:45:34.911Z,12.98
2022-08-26T01:48:07.857Z,19.80
2022-08-26T01:50:36.504Z,19.20
2022-08-26T01:53:09.610Z,23.63
2022-08-26T01:55:39.407Z,17.92
2022-08-26T01:58:13.992Z,14.43
2022-08-26T02:03:17.600Z,14.25
2022-08-26T02:05:53.472Z,14.10
2022-08-26T02:08:28.438Z,16.63
2022-08-26T02:10:56.152Z,15.15
2022-08-26T02:13:26.896Z,14.07
2022-08-26T02:15:55.558Z,13.75
2022-08-26T02:18:23.340Z,14.70
2022-08-26T02:20:54.081Z,21.58
2022-08-26T02:23:21.074Z,18.48
2022-08-26T02:25:58.098Z,15.15
2022-08-26T02:28:28.391Z,20.30
2022-08-26T02:30:55.789Z,20.17
2022-08-26T02:33:22.855Z,19.80
2022-08-26T02:35:49.870Z,15.95
2022-08-26T02:38:17.641Z,19.92
2022-08-26T02:40:44.749Z,19.05
2022-08-26T02:43:12.737Z,18.55
2022-08-26T02:45:40.741Z,15.82
2022-08-26T02:48:20.129Z,18.15
2022-08-26T02:50:48.742Z,20.65
2022-08-26T02:53:16.746Z,17.58
2022-08-26T02:55:51.555Z,21.02
2022-08-26T02:58:18.632Z,17.95
2022-08-26T03:00:52.795Z,19.33
2022-08-26T03:03:23.462Z,17.67
2022-08-26T03:05:51.550Z,20.77
2022-08-26T03:08:18.907Z,20.23
2022-08-26T03:10:48.060Z,26.02
2022-08-26T03:13:16.401Z,24.08
2022-08-26T03:15:44.330Z,18.15
2022-08-26T03:18:13.434Z,30.30
2022-08-26T03:20:40.336Z,30.52
2022-08-26T03:23:08.153Z,30.50
2022-08-26T03:25:36.172Z,32.55
2022-08-26T03:28:03.678Z,30.05
2022-08-26T03:30:45.445Z,29.08
2022-08-26T03:33:14.283Z,30.80
2022-08-26T03:35:43.642Z,31.08
2022-08-26T03:38:11.230Z,31.42
2022-08-26T03:40:38.884Z,35.10
2022-08-26T03:43:09.666Z,35.10
2022-08-26T03:45:37.301Z,34.25
2022-08-26T03:48:04.972Z,35.55
2022-08-26T03:50:34.100Z,35.47
2022-08-26T03:53:01.905Z,43.78
2022-08-26T03:55:34.253Z,39.17
2022-08-26T03:58:02.207Z,39.88
2022-08-26T04:00:30.072Z,41.10
2022-08-26T04:02:57.452Z,46.95
2022-08-26T04:05:26.070Z,43.40
2022-08-26T04:07:55.366Z,43.45
2022-08-26T04:10:28.995Z,49.63
2022-08-26T04:15:27.327Z,56.13
2022-08-26T04:17:56.078Z,63.95
2022-08-26T04:20:24.668Z,55.35
2022-08-26T04:22:52.387Z,67.55
2022-08-26T04:25:20.468Z,71.22
2022-08-26T04:27:48.305Z,66.75
2022-08-26T04:30:15.980Z,71.22
2022-08-26T04:32:44.381Z,75.95
2022-08-26T04:35:11.719Z,76.15
2022-08-26T04:37:39.051Z,86.18
2022-08-26T04:40:11.074Z,85.45
2022-08-26T04:42:38.104Z,97.60
2022-08-26T04:45:10.240Z,92.55
2022-08-26T04:47:37.809Z,94.53
2022-08-26T04:50:06.260Z,109.88
2022-08-26T04:52:35.763Z,134.85
2022-08-26T04:55:02.678Z,136.77
2022-08-26T04:57:29.610Z,122.55
2022-08-26T04:59:56.620Z,129.10
2022-08-26T05:02:24.368Z,134.98
2022-08-26T05:04:52.571Z,169.88
2022-08-26T05:07:19.522Z,179.82
2022-08-26T05:09:46.704Z,190.50
2022-08-26T05:12:13.581Z,191.98
2022-08-26T05:14:41.587Z,195.55
2022-08-26T05:17:08.784Z,195.82
2022-08-26T05:19:37.306Z,201.60
2022-08-26T05:22:09.683Z,211.73
2022-08-26T05:24:36.667Z,203.52
2022-08-26T05:27:11.505Z,209.15
2022-08-26T05:32:06.695Z,233.60
2022-08-26T05:34:33.513Z,233.23
2022-08-26T05:37:00.451Z,233.95
2022-08-26T05:39:27.409Z,226.68
2022-08-26T05:41:54.281Z,219.65
2022-08-26T05:44:21.254Z,226.73
2022-08-26T05:46:49.735Z,230.63
2022-08-26T05:49:18.833Z,229.45
2022-08-26T05:51:47.726Z,227.73
2022-08-26T05:54:21.924Z,215.30
2022-08-26T05:56:50.868Z,233.38
2022-08-26T05:59:21.234Z,222.55
2022-08-26T06:01:52.251Z,196.95
2022-08-26T06:04:20.205Z,206.63
2022-08-26T06:06:47.538Z,214.20
2022-08-26T06:10:01.614Z,204.90
2022-08-26T06:12:38.318Z,212.02
2022-08-26T06:15:05.839Z,212.07
2022-08-26T06:17:32.859Z,200.80
2022-08-26T06:19:59.819Z,211.52
2022-08-26T06:22:46.787Z,203.18
2022-08-26T06:25:32.354Z,207.77
2022-08-26T06:27:59.334Z,207.75
2022-08-26T06:30:26.465Z,208.93
2022-08-26T06:32:53.806Z,201.30
2022-08-26T06:35:21.765Z,186.43
2022-08-26T06:37:48.655Z,204.40
2022-08-26T06:40:15.613Z,183.60
2022-08-26T06:42:42.576Z,182.68
2022-08-26T06:45:10.977Z,195.80
2022-08-26T06:47:38.283Z,196.95
2022-08-26T06:50:05.527Z,190.63
2022-08-26T06:52:32.545Z,175.75
2022-08-26T06:54:59.667Z,182.00
2022-08-26T06:57:26.763Z,188.15
2022-08-26T06:59:53.878Z,168.75
2022-08-26T07:02:20.926Z,172.43
2022-08-26T07:04:48.105Z,168.65
2022-08-26T07:07:18.374Z,164.65
2022-08-26T07:09:48.987Z,165.05
2022-08-26T07:12:19.870Z,160.82
2022-08-26T07:14:47.391Z,163.02
2022-08-26T07:17:16.008Z,164.00
2022-08-26T07:19:43.648Z,166.25
2022-08-26T07:22:11.154Z,158.25
2022-08-26T07:24:42.382Z,158.10
2022-08-26T07:27:13.462Z,163.40
2022-08-26T07:29:40.949Z,156.35
2022-08-26T07:32:10.093Z,163.90
2022-08-26T07:34:38.713Z,162.07
2022-08-26T07:37:06.025Z,160.93
2022-08-26T07:39:35.959Z,148.52
2022-08-26T07:42:07.825Z,143.73
2022-08-26T07:44:38.433Z,145.60
2022-08-26T07:47:10.101Z,151.27
2022-08-26T07:49:38.428Z,153.45
2022-08-26T07:52:06.120Z,149.55
2022-08-26T07:54:33.259Z,153.45
2022-08-26T07:57:00.164Z,145.40
2022-08-26T07:59:27.194Z,150.80
2022-08-26T08:01:54.098Z,143.02
2022-08-26T08:04:26.199Z,154.20
2022-08-26T08:06:54.102Z,145.20
2022-08-26T08:09:22.409Z,153.50
2022-08-26T08:11:50.055Z,146.65
2022-08-26T08:14:22.195Z,155.52
2022-08-26T08:16:51.113Z,146.90
2022-08-26T08:19:22.046Z,143.18
2022-08-26T08:21:49.180Z,146.52
2022-08-26T08:24:16.139Z,153.88
2022-08-26T08:26:43.252Z,141.20
2022-08-26T08:29:10.209Z,142.30
2022-08-26T08:31:56.534Z,132.13
2022-08-26T08:34:26.564Z,130.32
2022-08-26T08:36:54.255Z,138.52
2022-08-26T08:39:22.453Z,126.85
2022-08-26T08:42:06.138Z,117.47
2022-08-26T08:44:33.992Z,126.55
2022-08-26T08:47:20.088Z,132.77
2022-08-26T08:49:47.747Z,137.68
2022-08-26T08:52:36.259Z,135.52
2022-08-26T08:55:10.993Z,140.13
2022-08-26T08:57:42.455Z,132.50
2022-08-26T09:00:18.219Z,131.20
2022-08-26T09:03:01.868Z,121.68
2022-08-26T09:05:40.486Z,122.17
2022-08-26T09:08:22.910Z,123.65
2022-08-26T09:10:54.584Z,131.35
2022-08-26T09:13:25.212Z,119.10
2022-08-26T09:16:10.037Z,124.28
2022-08-26T09:18:55.600Z,125.18
2022-08-26T09:21:25.150Z,123.25
2022-08-26T09:23:56.637Z,115.75
2022-08-26T09:26:47.522Z,104.47
2022-08-26T09:29:23.071Z,107.65
2022-08-26T09:31:52.330Z,119.88
2022-08-26T09:34:27.788Z,127.20
2022-08-26T09:36:57.330Z,117.60
2022-08-26T09:39:24.144Z,112.85
2022-08-26T09:42:19.321Z,102.53
2022-08-26T09:44:57.667Z,112.93
2022-08-26T09:47:31.562Z,111.55
2022-08-26T09:50:19.844Z,104.63
2022-08-26T09:52:47.639Z,96.40
2022-08-26T09:55:22.990Z,97.15
2022-08-26T09:57:55.337Z,102.57
2022-08-26T10:00:25.713Z,96.78
2022-08-26T10:02:56.049Z,96.63
2022-08-26T10:05:40.733Z,102.95
2022-08-26T10:08:28.799Z,91.28
2022-08-26T10:10:59.100Z,86.55
2022-08-26T10:13:33.537Z,81.13
2022-08-26T10:16:10.851Z,81.55
2022-08-26T10:18:45.505Z,77.22
2022-08-26T10:21:25.025Z,66.13
2022-08-26T10:23:56.512Z,70.25
2022-08-26T10:26:47.085Z,70.47
2022-08-26T10:29:21.336Z,74.32
2022-08-26T10:31:55.400Z,66.35
2022-08-26T10:34:29.508Z,67.80
2022-08-26T10:37:16.244Z,66.97
2022-08-26T10:40:02.464Z,66.50
2022-08-26T10:42:37.578Z,62.67
2022-08-26T10:45:11.670Z,72.30
2022-08-26T10:47:54.478Z,59.72
2022-08-26T10:50:26.173Z,61.97
2022-08-26T10:52:58.412Z,61.47
2022-08-26T10:55:57.621Z,49.30
2022-08-26T10:59:10.373Z,44.47
2022-08-26T11:02:09.638Z,51.13
2022-08-26T11:04:48.162Z,60.97
2022-08-26T11:07:36.991Z,57.28
2022-08-26T11:10:19.207Z,50.53
2022-08-26T11:12:49.579Z,42.30
2022-08-26T11:15:26.889Z,44.45
2022-08-26T11:17:57.212Z,39.50
2022-08-26T11:20:30.124Z,47.17
2022-08-26T11:23:22.683Z,48.65
2022-08-26T11:25:56.965Z,39.63
2022-08-26T11:28:35.644Z,39.75
2022-08-26T11:31:04.618Z,38.72
2022-08-26T11:33:44.232Z,42.83
2022-08-26T11:36:28.135Z,42.80
2022-08-26T11:41:26.368Z,50.70
2022-08-26T11:43:53.435Z,43.63
2022-08-26T11:46:27.564Z,42.95
2022-08-26T11:49:06.796Z,41.92
2022-08-26T11:51:40.477Z,38.55
2022-08-26T11:54:14.553Z,39.33
2022-08-26T11:56:45.590Z,40.10
2022-08-26T11:59:18.184Z,38.25
2022-08-26T12:01:50.568Z,38.70
2022-08-26T12:04:37.975Z,32.25
2022-08-26T12:07:08.831Z,34.05
2022-08-26T12:09:40.434Z,35.60
2022-08-26T12:12:16.768Z,39.42
2022-08-26T12:14:44.879Z,36.70
2022-08-26T12:17:22.481Z,38.35
2022-08-26T12:19:49.747Z,36.08
2022-08-26T12:22:23.102Z,41.75
2022-08-26T12:24:54.396Z,38.55
2022-08-26T12:27:23.999Z,37.65
2022-08-26T12:30:01.301Z,46.47
2022-08-26T12:32:29.172Z,40.05
2022-08-26T12:34:56.627Z,42.45
2022-08-26T12:37:24.811Z,42.95
2022-08-26T12:39:51.791Z,42.90
2022-08-26T12:42:41.443Z,38.53
2022-08-26T12:45:09.145Z,45.25
2022-08-26T12:47:44.323Z,45.67
2022-08-26T12:50:20.346Z,42.72
2022-08-26T12:52:59.370Z,39.50
2022-08-26T12:55:37.482Z,48.28
2022-08-26T12:58:16.821Z,45.67
2022-08-26T13:00:46.299Z,42.85
2022-08-26T13:03:46.391Z,50.20
2022-08-26T13:06:22.499Z,43.10
2022-08-26T13:09:18.980Z,42.97
2022-08-26T13:11:45.927Z,42.10
2022-08-26T13:14:22.250Z,40.72
2022-08-26T13:16:52.622Z,43.45
2022-08-26T13:19:22.545Z,36.92
2022-08-26T13:21:55.543Z,39.03
2022-08-26T13:24:22.546Z,40.17
2022-08-26T13:26:50.393Z,45.08
2022-08-26T13:29:18.386Z,40.63
2022-08-26T13:31:46.546Z,33.17
2022-08-26T13:34:19.083Z,36.70
2022-08-26T13:36:50.564Z,34.03
2022-08-26T13:39:18.476Z,36.92
2022-08-26T13:41:45.596Z,46.30
2022-08-26T13:44:12.654Z,33.75
2022-08-26T13:46:40.086Z,26.85
2022-08-26T13:49:07.418Z,27.83
2022-08-26T13:51:34.358Z,28.48
2022-08-26T13:54:01.256Z,32.30
2022-08-26T13:56:32.460Z,33.05
2022-08-26T13:59:01.208Z,36.40
2022-08-26T14:01:29.866Z,33.60
2022-08-26T14:03:57.333Z,25.33
2022-08-26T14:06:25.422Z,24.92
2022-08-26T14:08:52.370Z,23.05
2022-08-26T14:11:19.906Z,22.55
2022-08-26T14:13:46.857Z,21.13
2022-08-26T14:16:26.343Z,26.08
2022-08-26T14:18:54.235Z,23.98
2022-08-26T14:21:21.664Z,21.30
2022-08-26T14:23:48.906Z,23.05
2022-08-26T14:26:28.352Z,16.45
2022-08-26T14:28:59.129Z,22.30
2022-08-26T14:31:30.789Z,23.73
2022-08-26T14:34:01.750Z,26.98
2022-08-26T14:36:28.818Z,23.55
2022-08-26T14:38:58.369Z,25.77
2022-08-26T14:41:26.079Z,29.85
2022-08-26T14:44:00.200Z,27.05
2022-08-26T14:46:34.138Z,33.45
2022-08-26T14:49:06.165Z,33.85
2022-08-26T14:51:34.650Z,31.88
2022-08-26T14:54:13.705Z,31.65
2022-08-26T14:56:46.863Z,28.85
2022-08-26T14:59:16.104Z,37.83
2022-08-26T15:01:43.981Z,30.90
2022-08-26T15:04:11.253Z,31.60
2022-08-26T15:06:38.687Z,35.92
2022-08-26T15:09:06.535Z,31.70
2022-08-26T15:11:33.894Z,27.70
2022-08-26T15:14:01.125Z,32.33
2022-08-26T15:16:29.409Z,24.20
2022-08-26T15:18:56.838Z,27.85
2022-08-26T15:21:24.314Z,25.08
2022-08-26T15:23:52.940Z,27.05
2022-08-26T15:26:20.895Z,29.10
2022-08-26T15:28:48.485Z,28.40
2022-08-26T15:31:16.018Z,33.75
2022-08-26T15:33:43.296Z,33.83
2022-08-26T15:36:10.339Z,31.17
2022-08-26T15:38:41.496Z,30.60
2022-08-26T15:41:14.785Z,36.47
2022-08-26T15:43:42.168Z,28.98
2022-08-26T15:46:13.247Z,27.85
2022-08-26T15:48:41.104Z,28.10
2022-08-26T15:51:18.589Z,25.85
2022-08-26T15:53:45.815Z,32.60
2022-08-26T15:56:13.359Z,27.52
2022-08-26T15:58:40.519Z,31.23
2022-08-26T16:01:08.651Z,27.90
2022-08-26T16:03:36.553Z,36.13
2022-08-26T16:06:03.971Z,37.17
2022-08-26T16:08:30.971Z,38.55
2022-08-26T16:11:04.724Z,40.10
2022-08-26T16:13:39.855Z,35.08
2022-08-26T16:16:08.440Z,31.15
2022-08-26T16:18:36.028Z,32.85
2022-08-26T16:21:13.264Z,32.13
2022-08-26T16:23:44.302Z,35.28
2022-08-26T16:26:15.467Z,34.35
2022-08-26T16:28:43.757Z,31.52
2022-08-26T16:31:11.251Z,41.47
2022-08-26T16:33:38.721Z,41.15
2022-08-26T16:36:06.489Z,37.33
2022-08-26T16:38:34.767Z,36.40
2022-08-26T16:41:02.691Z,35.13
2022-08-26T16:43:29.609Z,40.97
2022-08-26T16:45:56.941Z,40.08
2022-08-26T16:48:24.086Z,33.15
2022-08-26T16:50:51.713Z,34.70
2022-08-26T16:53:19.205Z,36.55
2022-08-26T16:55:47.799Z,29.27
2022-08-26T16:58:15.466Z,31.45
2022-08-26T17:00:42.656Z,27.73
2022-08-26T17:03:10.327Z,39.20
2022-08-26T17:05:38.013Z,29.15
2022-08-26T17:08:05.871Z,28.88
2022-08-26T17:10:33.241Z,27.67
2022-08-26T17:13:00.987Z,32.42
2022-08-26T17:15:28.692Z,32.38
2022-08-26T17:17:56.915Z,23.83
2022-08-26T17:20:25.694Z,37.53
2022-08-26T17:22:55.182Z,26.85
2022-08-26T17:25:26.453Z,34.25
2022-08-26T17:27:53.996Z,28.65
2022-08-26T17:30:22.727Z,30.73
2022-08-26T17:32:50.906Z,28.10
2022-08-26T17:35:19.488Z,36.60
2022-08-26T17:37:47.160Z,23.67
2022-08-26T17:40:18.432Z,27.75
2022-08-26T17:42:45.851Z,24.90
2022-08-26T17:45:13.446Z,27.30
2022-08-26T17:47:41.442Z,22.33
2022-08-26T17:50:12.456Z,21.77
2022-08-26T17:52:41.240Z,31.52
2022-08-26T17:55:13.904Z,25.20
2022-08-26T17:57:44.199Z,20.67
2022-08-26T18:00:23.390Z,26.95
2022-08-26T18:02:50.438Z,26.55
2022-08-26T18:05:18.239Z,32.85
2022-08-26T18:07:45.591Z,32.28
2022-08-26T18:10:16.203Z,28.52
2022-08-26T18:12:43.260Z,33.13
2022-08-26T18:15:11.907Z,26.23
2022-08-26T18:17:39.992Z,26.65
2022-08-26T18:20:12.894Z,19.88
2022-08-26T18:22:40.406Z,23.25
2022-08-26T18:25:08.590Z,20.30
2022-08-26T18:27:36.643Z,23.63
2022-08-26T18:30:13.478Z,23.33
2022-08-26T18:32:42.853Z,24.48
2022-08-26T18:35:10.549Z,24.95
2022-08-26T18:37:37.726Z,23.15
2022-08-26T18:40:07.413Z,26.13
2022-08-26T18:42:34.390Z,23.10
2022-08-26T18:45:01.302Z,27.05
2022-08-26T18:47:28.535Z,19.52
2022-08-26T18:49:55.518Z,31.95
2022-08-26T18:52:22.780Z,25.52
2022-08-26T18:54:51.025Z,24.00
2022-08-26T18:57:17.859Z,24.02
2022-08-26T18:59:45.151Z,24.95
2022-08-26T19:02:12.399Z,23.58
2022-08-26T19:04:39.640Z,24.92
2022-08-26T19:07:07.612Z,23.30
2022-08-26T19:09:36.038Z,24.15
2022-08-26T19:12:04.267Z,25.25
2022-08-26T19:14:32.700Z,23.42
2022-08-26T19:17:00.709Z,27.98
2022-08-26T19:19:27.678Z,26.58
2022-08-26T19:21:54.903Z,24.55
2022-08-26T19:24:21.904Z,26.90
2022-08-26T19:26:57.582Z,25.90
2022-08-26T19:29:29.509Z,24.20
2022-08-26T19:31:56.936Z,23.65
2022-08-26T19:34:25.144Z,27.25
2022-08-26T19:36:53.384Z,22.45
2022-08-26T19:39:21.467Z,25.92
2022-08-26T19:41:49.152Z,32.92
2022-08-26T19:44:38.115Z,22.42
2022-08-26T19:47:07.442Z,22.10
2022-08-26T19:49:35.001Z,22.33
2022-08-26T19:52:05.812Z,25.13
2022-08-26T19:54:33.391Z,22.65
2022-08-26T19:57:00.615Z,23.23
2022-08-26T19:59:27.673Z,26.50
2022-08-26T20:02:01.039Z,24.65
2022-08-26T20:06:57.584Z,25.60
2022-08-26T20:09:28.629Z,24.45
2022-08-26T20:12:02.972Z,28.13
2022-08-26T20:14:30.217Z,21.38
2022-08-26T20:16:57.366Z,21.33
2022-08-26T20:19:42.857Z,21.10
2022-08-26T20:22:10.577Z,19.25
2022-08-26T20:24:37.988Z,22.02
2022-08-26T20:27:09.295Z,27.20
2022-08-26T20:29:36.977Z,22.13
2022-08-26T20:32:06.163Z,22.17
2022-08-26T20:34:34.872Z,25.75
2022-08-26T20:37:02.927Z,24.73
2022-08-26T20:39:30.039Z,24.38
2022-08-26T20:41:58.307Z,23.08
2022-08-26T20:44:27.067Z,25.90
2022-08-26T20:46:53.960Z,21.40
2022-08-26T20:49:21.378Z,23.27
2022-08-26T20:51:52.538Z,23.83
2022-08-26T20:54:26.198Z,23.20
2022-08-26T20:56:56.658Z,27.75
2022-08-26T20:59:24.589Z,27.50
2022-08-26T21:01:51.665Z,35.00
2022-08-26T21:04:22.841Z,22.20
2022-08-26T21:06:52.822Z,26.33
2022-08-26T21:09:24.454Z,23.65
2022-08-26T21:11:55.392Z,23.90
2022-08-26T21:14:25.732Z,26.60
2022-08-26T21:16:53.714Z,24.55
2022-08-26T21:19:20.719Z,24.52
2022-08-26T21:21:49.568Z,22.73
2022-08-26T21:24:16.838Z,23.92
2022-08-26T21:26:44.063Z,26.92
2022-08-26T21:29:11.012Z,18.77
2022-08-26T21:31:44.885Z,25.00
2022-08-26T21:34:13.919Z,20.02
2022-08-26T21:36:40.811Z,20.85
2022-08-26T21:39:11.491Z,30.10
2022-08-26T21:41:39.766Z,22.10
2022-08-26T21:44:06.842Z,20.08
2022-08-26T21:46:37.496Z,21.73
2022-08-26T21:49:08.443Z,20.83
2022-08-26T21:51:38.758Z,29.30
2022-08-26T21:54:10.811Z,18.20
2022-08-26T21:56:41.073Z,21.42
2022-08-26T21:59:08.910Z,23.17
2022-08-26T22:01:38.754Z,21.83
2022-08-26T22:04:07.655Z,21.75
2022-08-26T22:06:42.314Z,24.08
2022-08-26T22:09:10.180Z,20.92
2022-08-26T22:11:40.946Z,23.90
2022-08-26T22:14:08.269Z,19.67
2022-08-26T22:16:35.188Z,24.00
2022-08-26T22:19:02.234Z,20.60
2022-08-26T22:21:29.347Z,23.30
2022-08-26T22:23:58.635Z,21.10
2022-08-26T22:26:28.895Z,20.63
2022-08-26T22:28:58.713Z,17.23
2022-08-26T22:31:37.049Z,25.00
2022-08-26T22:34:12.849Z,23.98
2022-08-26T22:36:43.932Z,22.90
2022-08-26T22:39:13.528Z,17.92
2022-08-26T22:41:43.169Z,23.75
2022-08-26T22:44:11.975Z,24.35
2022-08-26T22:46:40.365Z,24.02
2022-08-26T22:49:08.991Z,21.23
2022-08-26T22:51:35.996Z,25.77
2022-08-26T22:54:02.873Z,26.88
2022-08-26T22:56:30.132Z,20.85
2022-08-26T22:58:57.017Z,18.70
2022-08-26T23:01:24.113Z,18.40
2022-08-26T23:03:51.065Z,22.20
2022-08-26T23:06:18.010Z,23.45
2022-08-26T23:08:46.515Z,28.23
2022-08-26T23:11:15.161Z,21.38
2022-08-26T23:13:42.545Z,18.33
2022-08-26T23:16:12.590Z,18.52
2022-08-26T23:18:41.264Z,24.13
2022-08-26T23:21:09.240Z,25.38
2022-08-26T23:23:39.075Z,16.65
2022-08-26T23:26:08.441Z,19.70
2022-08-26T23:28:36.896Z,22.67
2022-08-26T23:31:04.310Z,21.83
2022-08-26T23:33:51.264Z,22.35
2022-08-26T23:36:23.011Z,21.52
2022-08-26T23:38:54.182Z,25.83
2022-08-26T23:41:24.610Z,25.08
2022-08-26T23:43:51.781Z,25.48
2022-08-26T23:46:19.301Z,24.35
2022-08-26T23:48:46.587Z,32.40
2022-08-26T23:51:32.005Z,25.02
2022-08-26T23:53:58.906Z,34.47
2022-08-26T23:56:26.723Z,25.80
2022-08-26T23:58:56.847Z,28.08
